createdAt,value
2023-04-16T00:01:51.567Z,98130.14
2023-04-16T00:04:18.514Z,98130.30
2023-04-16T00:06:45.281Z,98128.41
2023-04-16T00:09:12.059Z,98129.09
2023-04-16T00:11:38.827Z,98128.60
2023-04-16T00:14:05.789Z,98127.33
2023-04-16T00:16:32.822Z,98122.89
2023-04-16T00:18:59.530Z,98124.70
2023-04-16T00:21:26.718Z,98125.56
2023-04-16T00:23:53.705Z,98130.00
2023-04-16T00:26:20.658Z,98131.98
2023-04-16T00:28:47.858Z,98131.02
2023-04-16T00:31:14.866Z,98129.89
2023-04-16T00:33:41.736Z,98135.89
2023-04-16T00:36:09.661Z,98133.95
2023-04-16T00:38:37.349Z,98128.40
2023-04-16T00:41:04.111Z,98130.87
2023-04-16T00:43:31.757Z,98136.06
2023-04-16T00:45:59.058Z,98144.29
2023-04-16T00:48:28.298Z,98149.89
2023-04-16T00:50:55.979Z,98150.82
2023-04-16T00:53:23.529Z,98147.88
2023-04-16T00:55:51.025Z,98153.81
2023-04-16T00:58:18.360Z,98154.98
2023-04-16T01:00:45.495Z,98153.38
2023-04-16T01:03:12.533Z,98157.41
2023-04-16T01:05:39.572Z,98155.00
2023-04-16T01:08:06.629Z,98156.23
2023-04-16T01:10:33.356Z,98160.50
2023-04-16T01:13:00.525Z,98161.43
2023-04-16T01:15:27.418Z,98167.52
2023-04-16T01:17:56.932Z,98167.45
2023-04-16T01:20:23.668Z,98168.44
2023-04-16T01:22:50.439Z,98164.89
2023-04-16T01:25:17.220Z,98166.29
2023-04-16T01:27:44.597Z,98164.68
2023-04-16T01:30:11.754Z,98171.22
2023-04-16T01:32:48.049Z,98173.38
2023-04-16T01:35:15.109Z,98171.25
2023-04-16T01:37:41.850Z,98175.02
2023-04-16T01:40:11.173Z,98179.09
2023-04-16T01:42:38.625Z,98183.84
2023-04-16T01:45:06.269Z,98186.14
2023-04-16T01:47:33.089Z,98185.40
2023-04-16T01:50:00.963Z,98190.86
2023-04-16T01:52:27.725Z,98192.56
2023-04-16T01:54:54.500Z,98192.03
2023-04-16T01:57:21.258Z,98188.51
2023-04-16T01:59:48.097Z,98192.71
2023-04-16T02:02:16.677Z,98195.56
2023-04-16T02:04:45.943Z,98196.16
2023-04-16T02:07:12.905Z,98192.41
2023-04-16T02:09:41.012Z,98194.63
2023-04-16T02:12:11.464Z,98188.23
2023-04-16T02:14:38.353Z,98190.77
2023-04-16T02:17:05.132Z,98189.88
2023-04-16T02:19:38.424Z,98192.89
2023-04-16T02:22:05.575Z,98201.09
2023-04-16T02:24:32.381Z,98200.50
2023-04-16T02:26:59.796Z,98205.58
2023-04-16T02:29:26.672Z,98204.71
2023-04-16T02:31:59.764Z,98206.30
2023-04-16T02:34:27.666Z,98209.41
2023-04-16T02:36:55.084Z,98209.09
2023-04-16T02:39:22.224Z,98205.90
2023-04-16T02:41:48.995Z,98208.64
2023-04-16T02:44:20.171Z,98213.93
2023-04-16T02:46:47.440Z,98216.64
2023-04-16T02:49:14.466Z,98217.15
2023-04-16T02:51:41.272Z,98218.27
2023-04-16T02:54:08.040Z,98219.60
2023-04-16T02:56:35.066Z,98217.16
2023-04-16T02:59:01.818Z,98218.17
2023-04-16T03:01:29.132Z,98218.21
2023-04-16T03:03:56.462Z,98222.69
2023-04-16T03:06:23.384Z,98218.15
2023-04-16T03:08:51.204Z,98224.20
2023-04-16T03:11:18.070Z,98228.21
2023-04-16T03:13:45.017Z,98232.64
2023-04-16T03:16:11.785Z,98232.91
2023-04-16T03:18:38.880Z,98239.46
2023-04-16T03:21:06.408Z,98243.11
2023-04-16T03:23:33.606Z,98256.77
2023-04-16T03:26:00.344Z,98259.41
2023-04-16T03:28:27.469Z,98260.02
2023-04-16T03:30:54.459Z,98262.44
2023-04-16T03:33:22.871Z,98261.32
2023-04-16T03:35:58.559Z,98261.46
2023-04-16T03:38:27.233Z,98267.95
2023-04-16T03:40:55.727Z,98270.98
2023-04-16T03:43:22.598Z,98271.32
2023-04-16T03:45:49.969Z,98276.14
2023-04-16T03:48:20.327Z,98282.79
2023-04-16T03:50:48.560Z,98284.67
2023-04-16T03:53:16.769Z,98288.63
2023-04-16T03:55:43.900Z,98285.81
2023-04-16T03:58:10.893Z,98289.68
2023-04-16T04:00:37.734Z,98291.11
2023-04-16T04:03:09.482Z,98292.20
2023-04-16T04:05:39.404Z,98292.89
2023-04-16T04:08:07.129Z,98294.48
2023-04-16T04:10:35.267Z,98298.44
2023-04-16T04:13:05.021Z,98302.71
2023-04-16T04:15:32.773Z,98305.04
2023-04-16T04:18:00.315Z,98307.33
2023-04-16T04:20:28.133Z,98306.19
2023-04-16T04:22:54.990Z,98306.11
2023-04-16T04:25:23.899Z,98314.97
2023-04-16T04:27:50.900Z,98314.05
2023-04-16T04:30:17.816Z,98317.91
2023-04-16T04:32:44.593Z,98322.90
2023-04-16T04:35:11.477Z,98328.23
2023-04-16T04:37:38.317Z,98333.87
2023-04-16T04:40:12.338Z,98338.91
2023-04-16T04:42:39.231Z,98342.64
2023-04-16T04:45:06.620Z,98344.01
2023-04-16T04:47:34.003Z,98350.23
2023-04-16T04:50:00.745Z,98355.27
2023-04-16T04:52:28.206Z,98356.81
2023-04-16T04:54:55.036Z,98359.95
2023-04-16T04:57:21.896Z,98357.48
2023-04-16T04:59:51.084Z,98354.13
2023-04-16T05:02:17.969Z,98353.98
2023-04-16T05:04:44.884Z,98358.53
2023-04-16T05:07:11.636Z,98357.70
2023-04-16T05:09:38.410Z,98361.69
2023-04-16T05:12:05.502Z,98366.98
2023-04-16T05:14:32.178Z,98367.49
2023-04-16T05:16:58.970Z,98372.67
2023-04-16T05:19:25.776Z,98381.66
2023-04-16T05:21:52.538Z,98384.20
2023-04-16T05:24:20.338Z,98386.02
2023-04-16T05:26:47.045Z,98382.30
2023-04-16T05:29:13.943Z,98381.52
2023-04-16T05:31:42.231Z,98383.73
2023-04-16T05:34:11.611Z,98378.67
2023-04-16T05:36:38.530Z,98376.58
2023-04-16T05:39:05.315Z,98371.17
2023-04-16T05:41:32.116Z,98376.30
2023-04-16T05:43:58.860Z,98376.61
2023-04-16T05:46:26.658Z,98384.97
2023-04-16T05:48:53.365Z,98386.35
2023-04-16T05:51:23.019Z,98393.53
2023-04-16T05:53:49.993Z,98394.44
2023-04-16T05:56:16.795Z,98402.10
2023-04-16T05:58:43.477Z,98400.77
2023-04-16T06:01:11.543Z,98409.03
2023-04-16T06:03:38.449Z,98409.54
2023-04-16T06:06:05.544Z,98414.61
2023-04-16T06:08:32.356Z,98420.48
2023-04-16T06:10:59.131Z,98424.35
2023-04-16T06:13:25.896Z,98427.80
2023-04-16T06:15:53.785Z,98434.55
2023-04-16T06:18:20.532Z,98436.11
2023-04-16T06:20:47.648Z,98432.54
2023-04-16T06:23:14.476Z,98434.34
2023-04-16T06:25:41.596Z,98438.84
2023-04-16T06:28:08.301Z,98440.36
2023-04-16T06:30:35.084Z,98441.29
2023-04-16T06:33:02.103Z,98441.52
2023-04-16T06:35:28.886Z,98445.59
2023-04-16T06:37:55.613Z,98445.70
2023-04-16T06:40:22.694Z,98441.10
2023-04-16T06:42:49.518Z,98436.58
2023-04-16T06:45:17.493Z,98437.15
2023-04-16T06:47:44.515Z,98426.98
2023-04-16T06:50:11.519Z,98422.34
2023-04-16T06:52:38.478Z,98414.98
2023-04-16T06:55:07.274Z,98418.05
2023-04-16T06:57:36.209Z,98426.86
2023-04-16T07:00:05.319Z,98427.20
2023-04-16T07:02:32.260Z,98426.23
2023-04-16T07:04:59.274Z,98423.34
2023-04-16T07:07:25.972Z,98423.41
2023-04-16T07:09:52.727Z,98426.20
2023-04-16T07:12:22.484Z,98432.85
2023-04-16T07:14:49.796Z,98438.59
2023-04-16T07:17:16.599Z,98438.02
2023-04-16T07:19:58.993Z,98436.87
2023-04-16T07:22:25.992Z,98444.42
2023-04-16T07:24:52.737Z,98448.70
2023-04-16T07:27:19.492Z,98450.02
2023-04-16T07:29:46.625Z,98444.27
2023-04-16T07:32:14.821Z,98445.88
2023-04-16T07:34:42.588Z,98448.63
2023-04-16T07:37:09.435Z,98455.95
2023-04-16T07:39:36.190Z,98455.55
2023-04-16T07:42:02.974Z,98458.16
2023-04-16T07:44:29.926Z,98459.05
2023-04-16T07:46:56.755Z,98464.16
2023-04-16T07:49:23.610Z,98466.34
2023-04-16T07:51:50.537Z,98469.98
2023-04-16T07:54:17.758Z,98473.31
2023-04-16T07:56:44.512Z,98470.08
2023-04-16T07:59:21.796Z,98473.88
2023-04-16T08:01:50.393Z,98474.38
2023-04-16T08:04:23.232Z,98478.31
2023-04-16T08:06:51.649Z,98480.58
2023-04-16T08:09:20.255Z,98478.44
2023-04-16T08:11:49.317Z,98485.81
2023-04-16T08:14:17.034Z,98485.78
2023-04-16T08:16:44.012Z,98485.86
2023-04-16T08:19:10.954Z,98484.95
2023-04-16T08:21:38.043Z,98486.00
2023-04-16T08:24:04.798Z,98481.36
2023-04-16T08:26:31.622Z,98481.56
2023-04-16T08:28:58.385Z,98483.86
2023-04-16T08:31:25.222Z,98479.68
2023-04-16T08:33:51.905Z,98485.41
2023-04-16T08:36:18.902Z,98486.50
2023-04-16T08:38:45.675Z,98487.48
2023-04-16T08:41:13.564Z,98484.16
2023-04-16T08:43:46.956Z,98486.65
2023-04-16T08:46:17.449Z,98481.73
2023-04-16T08:48:48.858Z,98483.63
2023-04-16T08:51:18.200Z,98481.33
2023-04-16T08:53:53.981Z,98480.20
2023-04-16T08:56:23.739Z,98485.39
2023-04-16T08:58:53.885Z,98487.15
2023-04-16T09:01:22.269Z,98490.19
2023-04-16T09:03:49.432Z,98492.40
2023-04-16T09:06:16.981Z,98494.72
2023-04-16T09:08:46.408Z,98496.91
2023-04-16T09:11:17.551Z,98496.51
2023-04-16T09:13:46.244Z,98494.84
2023-04-16T09:16:14.277Z,98497.73
2023-04-16T09:18:42.057Z,98493.86
2023-04-16T09:21:11.187Z,98492.52
2023-04-16T09:23:39.055Z,98491.84
2023-04-16T09:26:06.197Z,98491.91
2023-04-16T09:28:41.045Z,98487.08
2023-04-16T09:31:09.823Z,98484.67
2023-04-16T09:33:36.701Z,98487.80
2023-04-16T09:36:03.660Z,98490.83
2023-04-16T09:38:47.066Z,98492.55
2023-04-16T09:41:16.992Z,98496.84
2023-04-16T09:44:00.009Z,98497.73
2023-04-16T09:46:31.946Z,98495.88
2023-04-16T09:48:58.827Z,98489.64
2023-04-16T09:51:27.050Z,98491.41
2023-04-16T09:53:54.903Z,98491.63
2023-04-16T09:56:26.029Z,98493.84
2023-04-16T09:58:58.230Z,98491.84
2023-04-16T10:01:25.660Z,98497.02
2023-04-16T10:03:54.951Z,98503.73
2023-04-16T10:06:23.678Z,98498.79
2023-04-16T10:08:52.723Z,98498.34
2023-04-16T10:11:21.329Z,98500.38
2023-04-16T10:13:48.822Z,98499.67
2023-04-16T10:16:16.062Z,98495.27
2023-04-16T10:18:44.824Z,98493.04
2023-04-16T10:21:12.848Z,98492.11
2023-04-16T10:23:40.379Z,98494.89
2023-04-16T10:26:07.476Z,98498.73
2023-04-16T10:28:35.713Z,98499.61
2023-04-16T10:31:04.494Z,98502.48
2023-04-16T10:33:34.555Z,98507.27
2023-04-16T10:36:10.059Z,98509.31
2023-04-16T10:38:41.886Z,98510.10
2023-04-16T10:41:09.732Z,98517.89
2023-04-16T10:43:41.848Z,98519.31
2023-04-16T10:46:27.024Z,98516.61
2023-04-16T10:48:54.911Z,98519.65
2023-04-16T10:51:28.202Z,98516.92
2023-04-16T10:54:02.598Z,98519.89
2023-04-16T10:56:33.274Z,98519.23
2023-04-16T10:58:59.992Z,98516.29
2023-04-16T11:01:31.525Z,98514.85
2023-04-16T11:04:00.950Z,98514.44
2023-04-16T11:06:28.781Z,98512.64
2023-04-16T11:08:55.911Z,98517.24
2023-04-16T11:11:23.545Z,98517.40
2023-04-16T11:13:56.465Z,98515.59
2023-04-16T11:16:26.069Z,98520.77
2023-04-16T11:18:55.010Z,98526.41
2023-04-16T11:21:24.059Z,98526.08
2023-04-16T11:23:52.720Z,98525.60
2023-04-16T11:26:26.080Z,98527.37
2023-04-16T11:28:54.364Z,98529.55
2023-04-16T11:31:21.530Z,98528.80
2023-04-16T11:33:48.862Z,98527.15
2023-04-16T11:36:15.751Z,98522.98
2023-04-16T11:38:43.032Z,98515.25
2023-04-16T11:41:11.125Z,98512.95
2023-04-16T11:43:38.119Z,98520.02
2023-04-16T11:46:20.075Z,98515.33
2023-04-16T11:48:53.876Z,98517.30
2023-04-16T11:51:23.644Z,98511.02
2023-04-16T11:53:53.811Z,98508.89
2023-04-16T11:56:29.574Z,98508.86
2023-04-16T11:59:13.149Z,98508.79
2023-04-16T12:01:42.206Z,98506.36
2023-04-16T12:04:09.632Z,98514.81
2023-04-16T12:06:36.833Z,98509.23
2023-04-16T12:09:24.550Z,98499.53
2023-04-16T12:11:51.663Z,98502.92
2023-04-16T12:14:18.628Z,98500.95
2023-04-16T12:16:45.684Z,98499.40
2023-04-16T12:19:13.138Z,98502.55
2023-04-16T12:21:42.531Z,98500.44
2023-04-16T12:24:13.488Z,98501.88
2023-04-16T12:26:44.018Z,98498.74
2023-04-16T12:29:28.001Z,98499.10
2023-04-16T12:31:54.817Z,98496.84
2023-04-16T12:34:28.956Z,98497.56
2023-04-16T12:37:10.981Z,98498.02
2023-04-16T12:39:37.757Z,98497.96
2023-04-16T12:42:06.408Z,98499.45
2023-04-16T12:44:33.163Z,98495.81
2023-04-16T12:46:59.954Z,98492.61
2023-04-16T12:49:26.702Z,98490.71
2023-04-16T12:51:53.466Z,98493.63
2023-04-16T12:54:20.257Z,98491.06
2023-04-16T12:56:47.083Z,98489.75
2023-04-16T12:59:13.804Z,98485.66
2023-04-16T13:01:40.658Z,98485.84
2023-04-16T13:04:07.776Z,98481.70
2023-04-16T13:06:36.792Z,98480.62
2023-04-16T13:09:04.756Z,98482.73
2023-04-16T13:11:32.437Z,98484.67
2023-04-16T13:13:59.435Z,98484.13
2023-04-16T13:16:26.432Z,98486.34
2023-04-16T13:18:53.350Z,98489.40
2023-04-16T13:21:20.091Z,98480.15
2023-04-16T13:23:46.859Z,98479.42
2023-04-16T13:26:15.548Z,98475.40
2023-04-16T13:28:42.273Z,98473.16
2023-04-16T13:31:09.435Z,98467.77
2023-04-16T13:33:36.378Z,98466.89
2023-04-16T13:36:03.217Z,98466.36
2023-04-16T13:38:29.911Z,98466.14
2023-04-16T13:40:56.623Z,98466.56
2023-04-16T13:43:23.438Z,98460.64
2023-04-16T13:45:50.415Z,98463.77
2023-04-16T13:48:18.027Z,98464.02
2023-04-16T13:50:44.805Z,98466.50
2023-04-16T13:53:11.569Z,98467.40
2023-04-16T13:55:38.500Z,98468.63
2023-04-16T13:58:07.239Z,98476.66
2023-04-16T14:00:34.228Z,98474.89
2023-04-16T14:03:01.217Z,98475.29
2023-04-16T14:05:28.108Z,98471.95
2023-04-16T14:07:54.839Z,98474.30
2023-04-16T14:10:21.633Z,98473.15
2023-04-16T14:12:48.586Z,98467.29
2023-04-16T14:15:15.386Z,98465.34
2023-04-16T14:17:43.408Z,98466.41
2023-04-16T14:20:12.718Z,98468.80
2023-04-16T14:22:39.952Z,98468.86
2023-04-16T14:25:07.315Z,98462.39
2023-04-16T14:27:34.363Z,98467.71
2023-04-16T14:30:01.555Z,98466.71
2023-04-16T14:32:28.393Z,98464.54
2023-04-16T14:34:55.146Z,98466.69
2023-04-16T14:37:22.038Z,98465.35
2023-04-16T14:39:50.523Z,98465.08
2023-04-16T14:42:17.427Z,98464.10
2023-04-16T14:44:44.226Z,98466.04
2023-04-16T14:47:11.328Z,98463.38
2023-04-16T14:49:38.132Z,98464.75
2023-04-16T14:52:05.880Z,98469.05
2023-04-16T14:54:33.805Z,98470.14
2023-04-16T14:57:02.127Z,98469.48
2023-04-16T14:59:28.917Z,98466.81
2023-04-16T15:01:57.006Z,98470.67
2023-04-16T15:04:24.732Z,98470.47
2023-04-16T15:06:51.741Z,98470.33
2023-04-16T15:09:18.545Z,98468.70
2023-04-16T15:11:45.855Z,98470.29
2023-04-16T15:14:12.904Z,98468.85
2023-04-16T15:16:40.017Z,98469.98
2023-04-16T15:19:07.098Z,98470.31
2023-04-16T15:21:33.874Z,98466.88
2023-04-16T15:24:00.631Z,98473.13
2023-04-16T15:26:27.661Z,98474.73
2023-04-16T15:28:54.434Z,98476.17
2023-04-16T15:31:21.301Z,98478.94
2023-04-16T15:33:48.852Z,98482.68
2023-04-16T15:36:16.128Z,98482.66
2023-04-16T15:38:42.961Z,98481.62
2023-04-16T15:41:10.607Z,98487.27
2023-04-16T15:43:37.411Z,98487.89
2023-04-16T15:46:04.668Z,98485.42
2023-04-16T15:48:31.447Z,98488.54
2023-04-16T15:50:58.237Z,98487.79
2023-04-16T15:53:40.782Z,98489.55
2023-04-16T15:56:07.590Z,98486.70
2023-04-16T15:58:34.409Z,98489.65
2023-04-16T16:01:02.597Z,98489.39
2023-04-16T16:03:29.893Z,98486.49
2023-04-16T16:05:59.247Z,98487.95
2023-04-16T16:08:26.457Z,98490.30
2023-04-16T16:10:53.280Z,98492.61
2023-04-16T16:13:19.996Z,98499.92
2023-04-16T16:15:46.759Z,98498.98
2023-04-16T16:18:13.566Z,98502.47
2023-04-16T16:20:40.735Z,98502.06
2023-04-16T16:23:07.846Z,98504.52
2023-04-16T16:25:34.640Z,98503.96
2023-04-16T16:28:02.217Z,98509.65
2023-04-16T16:30:30.669Z,98510.17
2023-04-16T16:32:57.939Z,98511.42
2023-04-16T16:35:26.209Z,98510.31
2023-04-16T16:37:55.823Z,98512.15
2023-04-16T16:40:23.288Z,98511.66
2023-04-16T16:42:52.180Z,98515.42
2023-04-16T16:45:19.407Z,98509.28
2023-04-16T16:47:46.830Z,98510.62
2023-04-16T16:50:13.760Z,98513.70
2023-04-16T16:52:40.578Z,98516.71
2023-04-16T16:55:11.058Z,98516.73
2023-04-16T16:57:39.003Z,98518.76
2023-04-16T17:00:11.525Z,98522.55
2023-04-16T17:02:38.964Z,98531.55
2023-04-16T17:05:07.626Z,98533.48
2023-04-16T17:07:34.367Z,98535.13
2023-04-16T17:10:03.642Z,98535.44
2023-04-16T17:12:32.210Z,98539.79
2023-04-16T17:14:59.018Z,98539.38
2023-04-16T17:17:27.013Z,98543.80
2023-04-16T17:19:54.166Z,98547.94
2023-04-16T17:22:21.736Z,98552.46
2023-04-16T17:24:48.461Z,98552.77
2023-04-16T17:27:15.149Z,98560.58
2023-04-16T17:29:41.884Z,98562.42
2023-04-16T17:32:08.660Z,98566.52
2023-04-16T17:34:35.498Z,98568.69
2023-04-16T17:37:02.282Z,98564.37
2023-04-16T17:39:29.573Z,98570.30
2023-04-16T17:41:58.605Z,98577.94
2023-04-16T17:44:27.495Z,98579.39
2023-04-16T17:46:54.319Z,98580.67
2023-04-16T17:49:21.286Z,98585.67
2023-04-16T17:51:48.953Z,98590.34
2023-04-16T17:54:15.846Z,98591.77
2023-04-16T17:56:42.687Z,98596.54
2023-04-16T17:59:09.492Z,98595.73
2023-04-16T18:01:36.223Z,98599.92
2023-04-16T18:04:03.177Z,98600.15
2023-04-16T18:06:31.016Z,98599.81
2023-04-16T18:08:58.379Z,98600.34
2023-04-16T18:11:25.060Z,98602.84
2023-04-16T18:13:53.862Z,98602.63
2023-04-16T18:16:20.787Z,98604.92
2023-04-16T18:18:47.993Z,98608.70
2023-04-16T18:21:14.806Z,98613.96
2023-04-16T18:23:41.660Z,98611.70
2023-04-16T18:26:09.464Z,98613.84
2023-04-16T18:28:38.038Z,98620.98
2023-04-16T18:31:06.847Z,98624.58
2023-04-16T18:33:54.219Z,98628.99
2023-04-16T18:36:21.130Z,98630.01
2023-04-16T18:39:00.301Z,98633.70
2023-04-16T18:41:28.393Z,98632.77
2023-04-16T18:43:55.620Z,98638.14
2023-04-16T18:46:22.717Z,98641.04
2023-04-16T18:48:49.823Z,98640.49
2023-04-16T18:51:16.910Z,98640.73
2023-04-16T18:53:45.764Z,98646.14
2023-04-16T18:56:12.852Z,98649.16
2023-04-16T18:58:39.774Z,98652.02
2023-04-16T19:01:11.010Z,98655.95
2023-04-16T19:03:38.641Z,98656.70
2023-04-16T19:06:06.406Z,98657.15
2023-04-16T19:08:48.696Z,98654.99
2023-04-16T19:11:15.701Z,98656.73
2023-04-16T19:13:44.569Z,98658.52
2023-04-16T19:16:13.346Z,98660.09
2023-04-16T19:18:40.258Z,98660.41
2023-04-16T19:21:07.286Z,98660.48
2023-04-16T19:23:34.144Z,98658.02
2023-04-16T19:26:01.602Z,98656.56
2023-04-16T19:28:28.778Z,98657.24
2023-04-16T19:30:56.152Z,98658.86
2023-04-16T19:33:23.098Z,98658.88
2023-04-16T19:35:49.904Z,98661.55
2023-04-16T19:38:16.714Z,98662.08
2023-04-16T19:40:46.658Z,98658.65
2023-04-16T19:43:13.951Z,98658.54
2023-04-16T19:45:53.411Z,98653.91
2023-04-16T19:48:21.509Z,98653.20
2023-04-16T19:50:48.763Z,98658.82
2023-04-16T19:53:17.222Z,98659.69
2023-04-16T19:55:43.977Z,98660.61
2023-04-16T19:58:10.835Z,98655.17
2023-04-16T20:00:38.915Z,98656.96
2023-04-16T20:03:06.331Z,98658.98
2023-04-16T20:05:33.192Z,98661.79
2023-04-16T20:08:00.393Z,98663.83
2023-04-16T20:10:27.788Z,98663.20
2023-04-16T20:12:54.492Z,98660.70
2023-04-16T20:15:21.858Z,98662.02
2023-04-16T20:17:48.609Z,98659.04
2023-04-16T20:20:16.454Z,98656.63
2023-04-16T20:22:43.777Z,98655.88
2023-04-16T20:25:10.626Z,98656.70
2023-04-16T20:27:37.503Z,98658.98
2023-04-16T20:30:06.425Z,98668.45
2023-04-16T20:32:33.278Z,98667.05
2023-04-16T20:35:00.435Z,98665.67
2023-04-16T20:37:29.164Z,98667.52
2023-04-16T20:39:56.387Z,98668.80
2023-04-16T20:42:26.394Z,98664.33
2023-04-16T20:44:56.496Z,98666.06
2023-04-16T20:47:23.860Z,98666.33
2023-04-16T20:49:52.708Z,98668.21
2023-04-16T20:52:19.758Z,98669.96
2023-04-16T20:54:47.171Z,98663.50
2023-04-16T20:57:14.160Z,98662.70
2023-04-16T20:59:40.986Z,98664.27
2023-04-16T21:02:07.989Z,98664.57
2023-04-16T21:04:35.559Z,98666.26
2023-04-16T21:07:04.354Z,98664.78
2023-04-16T21:09:31.585Z,98664.49
2023-04-16T21:11:58.588Z,98662.71
2023-04-16T21:14:25.375Z,98663.21
2023-04-16T21:16:52.150Z,98658.69
2023-04-16T21:19:19.003Z,98658.08
2023-04-16T21:21:45.999Z,98660.12
2023-04-16T21:24:12.707Z,98657.80
2023-04-16T21:26:39.417Z,98659.74
2023-04-16T21:29:06.188Z,98663.14
2023-04-16T21:31:32.935Z,98662.36
2023-04-16T21:34:00.077Z,98662.39
2023-04-16T21:36:27.772Z,98660.14
2023-04-16T21:38:55.039Z,98658.77
2023-04-16T21:41:21.784Z,98658.52
2023-04-16T21:43:48.759Z,98658.92
2023-04-16T21:46:15.508Z,98661.59
2023-04-16T21:48:42.266Z,98658.91
2023-04-16T21:51:10.101Z,98661.21
2023-04-16T21:53:38.701Z,98663.80
2023-04-16T21:56:06.480Z,98664.98
2023-04-16T21:58:33.294Z,98667.58
2023-04-16T22:01:00.031Z,98669.91
2023-04-16T22:03:28.296Z,98671.92
2023-04-16T22:06:00.930Z,98669.40
2023-04-16T22:08:30.688Z,98670.80
2023-04-16T22:11:00.207Z,98666.23
2023-04-16T22:13:27.905Z,98666.29
2023-04-16T22:15:55.527Z,98665.76
2023-04-16T22:18:25.521Z,98670.86
2023-04-16T22:20:54.980Z,98675.48
2023-04-16T22:23:23.468Z,98674.09
2023-04-16T22:25:50.975Z,98671.16
2023-04-16T22:28:17.959Z,98674.66
2023-04-16T22:30:44.689Z,98677.48
2023-04-16T22:33:11.511Z,98678.09
2023-04-16T22:35:38.301Z,98675.70
2023-04-16T22:38:05.561Z,98680.35
2023-04-16T22:40:32.303Z,98676.25
2023-04-16T22:42:59.153Z,98679.86
2023-04-16T22:45:27.264Z,98682.58
2023-04-16T22:47:54.137Z,98679.95
2023-04-16T22:50:21.072Z,98678.55
2023-04-16T22:52:47.800Z,98676.77
2023-04-16T22:55:14.614Z,98673.38
2023-04-16T22:57:42.060Z,98668.60
2023-04-16T23:00:15.665Z,98667.44
2023-04-16T23:02:43.253Z,98668.11
2023-04-16T23:05:10.920Z,98668.59
2023-04-16T23:07:37.667Z,98668.08
2023-04-16T23:10:04.846Z,98667.09
2023-04-16T23:12:31.572Z,98665.73
2023-04-16T23:14:58.460Z,98662.70
2023-04-16T23:17:25.265Z,98659.20
2023-04-16T23:19:52.177Z,98663.92
2023-04-16T23:22:18.926Z,98663.92
2023-04-16T23:24:45.802Z,98662.93
2023-04-16T23:27:12.663Z,98662.14
2023-04-16T23:29:39.477Z,98659.09
2023-04-16T23:32:06.247Z,98658.84
2023-04-16T23:34:33.033Z,98661.44
2023-04-16T23:36:59.804Z,98660.70
2023-04-16T23:39:27.249Z,98661.66
2023-04-16T23:41:54.016Z,98658.58
2023-04-16T23:44:20.727Z,98661.19
2023-04-16T23:46:47.708Z,98658.55
2023-04-16T23:49:14.487Z,98660.44
2023-04-16T23:51:41.298Z,98656.16
2023-04-16T23:54:08.044Z,98656.93
2023-04-16T23:56:34.740Z,98652.76
2023-04-16T23:59:01.672Z,98654.33
